PWSweather.com
Personal Weather Stations
Station Observations
WXGLH1124
Southern Oaks, Indianapolis, IN 46217

Southern OaksIndianapolis, IN 46217

Lat: 39.65113, Lon: -86.16866

Elevation: 720

Station Type: Vantage Pro2

High Low Average
Temperature 16.5°F-8.6°C 5.6°F-14.7°C 11.2°F-11.6°C
Dew Point 6.8°F-14.0°C -1.8°F-18.8°C 2.9°F-16.2°C
Winds 12.0 mph 19.3 kmh Calm Calm 4.0 mph WNW6.4 kmh WNW
Wind Gusts 14.0 mph22.5 kmh 2.0 mph3.2 kmh 7.0 mph11.3 kmh
Humidity 76% 61% 69%
Pressure 30.34 in1027.4 mb 30.27 in1025.1 mb -
Precipitation 0.00 in0.0 mm - -
Hour Temp Dew Point Humidity Winds Wind Gusts Pressure Precip Precip Rate Daily Precip Total
05:50 AM 9.3°F-12.6°C 3.3°F-15.9°C 76% 4.0 mph NW6.4 kmh NW 5.0 mph8.0 kmh 30.27 in1025.1 mb 0.00 in0.0 mm 0.00 in0.0 mm 0.00 in0.0 mm
05:55 AM 9.2°F-12.7°C 3.2°F-16.0°C 76% 4.0 mph NW6.4 kmh NW 7.0 mph11.3 kmh 30.27 in1025.1 mb 0.00 in0.0 mm 0.00 in0.0 mm 0.00 in0.0 mm
06:00 AM 9.2°F-12.7°C 3.2°F-16.0°C 76% 2.0 mph WNW3.2 kmh WNW 6.0 mph9.7 kmh 30.27 in1025.1 mb 0.00 in0.0 mm 0.00 in0.0 mm 0.00 in0.0 mm
06:05 AM 9.1°F-12.7°C 2.8°F-16.2°C 75% 4.0 mph NW6.4 kmh NW 8.0 mph12.9 kmh 30.27 in1025.1 mb 0.00 in0.0 mm 0.00 in0.0 mm 0.00 in0.0 mm
06:10 AM 9.0°F-12.8°C 2.7°F-16.3°C 75% 4.0 mph WNW6.4 kmh WNW 8.0 mph12.9 kmh 30.27 in1025.1 mb 0.00 in0.0 mm 0.00 in0.0 mm 0.00 in0.0 mm
06:15 AM 8.9°F-12.8°C 2.3°F-16.5°C 74% 5.0 mph NW8.0 kmh NW 5.0 mph8.0 kmh 30.27 in1025.1 mb 0.00 in0.0 mm 0.00 in0.0 mm 0.00 in0.0 mm
06:20 AM 8.9°F-12.8°C 2.6°F-16.3°C 75% 4.0 mph NW6.4 kmh NW 5.0 mph8.0 kmh 30.27 in1025.1 mb 0.00 in0.0 mm 0.00 in0.0 mm 0.00 in0.0 mm
06:25 AM 8.9°F-12.8°C 2.6°F-16.3°C 75% 7.0 mph WNW11.3 kmh WNW 8.0 mph12.9 kmh 30.28 in1025.4 mb 0.00 in0.0 mm 0.00 in0.0 mm 0.00 in0.0 mm
06:30 AM 8.9°F-12.8°C 2.6°F-16.3°C 75% 4.0 mph NW6.4 kmh NW 5.0 mph8.0 kmh 30.28 in1025.4 mb 0.00 in0.0 mm 0.00 in0.0 mm 0.00 in0.0 mm
06:34 AM 8.9°F-12.8°C 2.6°F-16.3°C 75% 1.0 mph NW1.6 kmh NW 4.0 mph6.4 kmh 30.28 in1025.4 mb 0.00 in0.0 mm 0.00 in0.0 mm 0.00 in0.0 mm
06:40 AM 8.8°F-12.9°C 2.2°F-16.6°C 74% 6.0 mph NW9.7 kmh NW 6.0 mph9.7 kmh 30.28 in1025.4 mb 0.00 in0.0 mm 0.00 in0.0 mm 0.00 in0.0 mm
06:45 AM 8.7°F-12.9°C 2.1°F-16.6°C 74% 5.0 mph NW8.0 kmh NW 6.0 mph9.7 kmh 30.28 in1025.4 mb 0.00 in0.0 mm 0.00 in0.0 mm 0.00 in0.0 mm
06:49 AM 8.7°F-12.9°C 2.1°F-16.6°C 74% 4.0 mph NNW6.4 kmh NNW 4.0 mph6.4 kmh 30.28 in1025.4 mb 0.00 in0.0 mm 0.00 in0.0 mm 0.00 in0.0 mm
06:55 AM 8.5°F-13.1°C 1.6°F-16.9°C 73% 4.0 mph NW6.4 kmh NW 9.0 mph14.5 kmh 30.28 in1025.4 mb 0.00 in0.0 mm 0.00 in0.0 mm 0.00 in0.0 mm
07:00 AM 8.4°F-13.1°C 1.3°F-17.1°C 72% 4.0 mph NNW6.4 kmh NNW 8.0 mph12.9 kmh 30.28 in1025.4 mb 0.00 in0.0 mm 0.00 in0.0 mm 0.00 in0.0 mm
07:05 AM 8.3°F-13.2°C 1.2°F-17.1°C 72% Calm Calm 5.0 mph8.0 kmh 30.28 in1025.4 mb 0.00 in0.0 mm 0.00 in0.0 mm 0.00 in0.0 mm
07:10 AM 8.2°F-13.2°C 1.1°F-17.2°C 72% 2.0 mph NW3.2 kmh NW 7.0 mph11.3 kmh 30.28 in1025.4 mb 0.00 in0.0 mm 0.00 in0.0 mm 0.00 in0.0 mm
07:14 AM 8.1°F-13.3°C 1.0°F-17.2°C 72% 1.0 mph NW1.6 kmh NW 7.0 mph11.3 kmh 30.28 in1025.4 mb 0.00 in0.0 mm 0.00 in0.0 mm 0.00 in0.0 mm
07:20 AM 8.1°F-13.3°C 1.0°F-17.2°C 72% Calm Calm 4.0 mph6.4 kmh 30.28 in1025.4 mb 0.00 in0.0 mm 0.00 in0.0 mm 0.00 in0.0 mm
07:25 AM 8.0°F-13.3°C 0.9°F-17.3°C 72% 2.0 mph NW3.2 kmh NW 5.0 mph8.0 kmh 30.28 in1025.4 mb 0.00 in0.0 mm 0.00 in0.0 mm 0.00 in0.0 mm
07:30 AM 7.8°F-13.4°C 1.0°F-17.2°C 73% 5.0 mph NW8.0 kmh NW 7.0 mph11.3 kmh 30.28 in1025.4 mb 0.00 in0.0 mm 0.00 in0.0 mm 0.00 in0.0 mm
07:35 AM 7.7°F-13.5°C 0.9°F-17.3°C 73% 3.0 mph NW4.8 kmh NW 5.0 mph8.0 kmh 30.28 in1025.4 mb 0.00 in0.0 mm 0.00 in0.0 mm 0.00 in0.0 mm
07:39 AM 7.6°F-13.6°C 0.8°F-17.3°C 73% 3.0 mph NW4.8 kmh NW 7.0 mph11.3 kmh 30.28 in1025.4 mb 0.00 in0.0 mm 0.00 in0.0 mm 0.00 in0.0 mm
07:44 AM 7.5°F-13.6°C 0.7°F-17.4°C 73% Calm Calm 2.0 mph3.2 kmh 30.28 in1025.4 mb 0.00 in0.0 mm 0.00 in0.0 mm 0.00 in0.0 mm
07:50 AM 7.4°F-13.7°C 0.6°F-17.4°C 73% 1.0 mph NW1.6 kmh NW 5.0 mph8.0 kmh 30.28 in1025.4 mb 0.00 in0.0 mm 0.00 in0.0 mm 0.00 in0.0 mm
07:55 AM 7.4°F-13.7°C 0.3°F-17.6°C 72% 4.0 mph NW6.4 kmh NW 4.0 mph6.4 kmh 30.28 in1025.4 mb 0.00 in0.0 mm 0.00 in0.0 mm 0.00 in0.0 mm
08:00 AM 7.3°F-13.7°C 0.5°F-17.5°C 73% 3.0 mph NNW4.8 kmh NNW 4.0 mph6.4 kmh 30.28 in1025.4 mb 0.00 in0.0 mm 0.00 in0.0 mm 0.00 in0.0 mm
08:05 AM 7.3°F-13.7°C 0.5°F-17.5°C 73% 5.0 mph NW8.0 kmh NW 5.0 mph8.0 kmh 30.29 in1025.7 mb 0.00 in0.0 mm 0.00 in0.0 mm 0.00 in0.0 mm
08:10 AM 7.2°F-13.8°C 0.1°F-17.7°C 72% 3.0 mph NW4.8 kmh NW 8.0 mph12.9 kmh 30.29 in1025.7 mb 0.00 in0.0 mm 0.00 in0.0 mm 0.00 in0.0 mm
08:15 AM 6.9°F-13.9°C -0.2°F-17.9°C 72% 6.0 mph NW9.7 kmh NW 6.0 mph9.7 kmh 30.29 in1025.7 mb 0.00 in0.0 mm 0.00 in0.0 mm 0.00 in0.0 mm
08:20 AM 6.8°F-14.0°C -0.3°F-17.9°C 72% 4.0 mph NW6.4 kmh NW 5.0 mph8.0 kmh 30.29 in1025.7 mb 0.00 in0.0 mm 0.00 in0.0 mm 0.00 in0.0 mm
08:25 AM 6.6°F-14.1°C -0.5°F-18.1°C 72% 3.0 mph NNW4.8 kmh NNW 4.0 mph6.4 kmh 30.29 in1025.7 mb 0.00 in0.0 mm 0.00 in0.0 mm 0.00 in0.0 mm
08:30 AM 6.4°F-14.2°C -0.7°F-18.2°C 72% 3.0 mph NW4.8 kmh NW 5.0 mph8.0 kmh 30.29 in1025.7 mb 0.00 in0.0 mm 0.00 in0.0 mm 0.00 in0.0 mm
08:35 AM 6.1°F-14.4°C -1.3°F-18.5°C 71% 4.0 mph NW6.4 kmh NW 5.0 mph8.0 kmh 30.30 in1026.1 mb 0.00 in0.0 mm 0.00 in0.0 mm 0.00 in0.0 mm
08:40 AM 5.9°F-14.5°C -1.2°F-18.4°C 72% 3.0 mph NW4.8 kmh NW 5.0 mph8.0 kmh 30.30 in1026.1 mb 0.00 in0.0 mm 0.00 in0.0 mm 0.00 in0.0 mm
08:45 AM 5.8°F-14.6°C -1.3°F-18.5°C 72% 4.0 mph NW6.4 kmh NW 8.0 mph12.9 kmh 30.30 in1026.1 mb 0.00 in0.0 mm 0.00 in0.0 mm 0.00 in0.0 mm
08:50 AM 5.8°F-14.6°C -1.0°F-18.3°C 73% 3.0 mph NNW4.8 kmh NNW 9.0 mph14.5 kmh 30.31 in1026.4 mb 0.00 in0.0 mm 0.00 in0.0 mm 0.00 in0.0 mm
08:55 AM 5.8°F-14.6°C -1.0°F-18.3°C 73% 1.0 mph NW1.6 kmh NW 7.0 mph11.3 kmh 30.31 in1026.4 mb 0.00 in0.0 mm 0.00 in0.0 mm 0.00 in0.0 mm
09:00 AM 5.8°F-14.6°C -1.0°F-18.3°C 73% 1.0 mph NW1.6 kmh NW 3.0 mph4.8 kmh 30.31 in1026.4 mb 0.00 in0.0 mm 0.00 in0.0 mm 0.00 in0.0 mm
09:05 AM 5.8°F-14.6°C -1.0°F-18.3°C 73% Calm Calm 3.0 mph4.8 kmh 30.32 in1026.8 mb 0.00 in0.0 mm 0.00 in0.0 mm 0.00 in0.0 mm
09:10 AM 5.8°F-14.6°C -1.0°F-18.3°C 73% 5.0 mph NNW8.0 kmh NNW 7.0 mph11.3 kmh 30.32 in1026.8 mb 0.00 in0.0 mm 0.00 in0.0 mm 0.00 in0.0 mm
09:15 AM 5.9°F-14.5°C -0.9°F-18.3°C 73% 7.0 mph WNW11.3 kmh WNW 9.0 mph14.5 kmh 30.32 in1026.8 mb 0.00 in0.0 mm 0.00 in0.0 mm 0.00 in0.0 mm
09:20 AM 5.7°F-14.6°C -1.4°F-18.6°C 72% 3.0 mph NW4.8 kmh NW 10.0 mph16.1 kmh 30.32 in1026.8 mb 0.00 in0.0 mm 0.00 in0.0 mm 0.00 in0.0 mm
09:25 AM 5.6°F-14.7°C -1.8°F-18.8°C 71% 5.0 mph NW8.0 kmh NW 6.0 mph9.7 kmh 30.33 in1027.1 mb 0.00 in0.0 mm 0.00 in0.0 mm 0.00 in0.0 mm
09:30 AM 5.6°F-14.7°C -1.8°F-18.8°C 71% 3.0 mph N4.8 kmh N 6.0 mph9.7 kmh 30.33 in1027.1 mb 0.00 in0.0 mm 0.00 in0.0 mm 0.00 in0.0 mm
09:35 AM 5.7°F-14.6°C -1.7°F-18.7°C 71% 5.0 mph NW8.0 kmh NW 7.0 mph11.3 kmh 30.33 in1027.1 mb 0.00 in0.0 mm 0.00 in0.0 mm 0.00 in0.0 mm
09:39 AM 5.9°F-14.5°C -1.2°F-18.4°C 72% 1.0 mph NW1.6 kmh NW 5.0 mph8.0 kmh 30.33 in1027.1 mb 0.00 in0.0 mm 0.00 in0.0 mm 0.00 in0.0 mm
09:45 AM 6.1°F-14.4°C -1.0°F-18.3°C 72% 1.0 mph WSW1.6 kmh WSW 8.0 mph12.9 kmh 30.33 in1027.1 mb 0.00 in0.0 mm 0.00 in0.0 mm 0.00 in0.0 mm
09:50 AM 6.2°F-14.3°C -1.2°F-18.4°C 71% 4.0 mph WNW6.4 kmh WNW 7.0 mph11.3 kmh 30.33 in1027.1 mb 0.00 in0.0 mm 0.00 in0.0 mm 0.00 in0.0 mm
09:55 AM 6.1°F-14.4°C -1.3°F-18.5°C 71% 4.0 mph NW6.4 kmh NW 8.0 mph12.9 kmh 30.33 in1027.1 mb 0.00 in0.0 mm 0.00 in0.0 mm 0.00 in0.0 mm
10:00 AM 6.2°F-14.3°C -1.2°F-18.4°C 71% 5.0 mph NW8.0 kmh NW 10.0 mph16.1 kmh 30.33 in1027.1 mb 0.00 in0.0 mm 0.00 in0.0 mm 0.00 in0.0 mm
10:05 AM 6.3°F-14.3°C -1.1°F-18.4°C 71% 7.0 mph NW11.3 kmh NW 8.0 mph12.9 kmh 30.33 in1027.1 mb 0.00 in0.0 mm 0.00 in0.0 mm 0.00 in0.0 mm
10:10 AM 6.5°F-14.2°C -0.6°F-18.1°C 72% 2.0 mph WNW3.2 kmh WNW 5.0 mph8.0 kmh 30.33 in1027.1 mb 0.00 in0.0 mm 0.00 in0.0 mm 0.00 in0.0 mm
10:15 AM 6.8°F-14.0°C -0.3°F-17.9°C 72% 6.0 mph W9.7 kmh W 8.0 mph12.9 kmh 30.34 in1027.4 mb 0.00 in0.0 mm 0.00 in0.0 mm 0.00 in0.0 mm
10:20 AM 6.9°F-13.9°C -0.5°F-18.1°C 71% 4.0 mph NW6.4 kmh NW 8.0 mph12.9 kmh 30.34 in1027.4 mb 0.00 in0.0 mm 0.00 in0.0 mm 0.00 in0.0 mm
10:25 AM 6.8°F-14.0°C -0.9°F-18.3°C 70% 7.0 mph WNW11.3 kmh WNW 9.0 mph14.5 kmh 30.34 in1027.4 mb 0.00 in0.0 mm 0.00 in0.0 mm 0.00 in0.0 mm
10:30 AM 6.8°F-14.0°C -0.6°F-18.1°C 71% 9.0 mph WSW14.5 kmh WSW 9.0 mph14.5 kmh 30.34 in1027.4 mb 0.00 in0.0 mm 0.00 in0.0 mm 0.00 in0.0 mm
10:35 AM 6.9°F-13.9°C -0.5°F-18.1°C 71% 5.0 mph NW8.0 kmh NW 8.0 mph12.9 kmh 30.34 in1027.4 mb 0.00 in0.0 mm 0.00 in0.0 mm 0.00 in0.0 mm
10:39 AM 6.9°F-13.9°C -0.8°F-18.2°C 70% 6.0 mph NNW9.7 kmh NNW 8.0 mph12.9 kmh 30.34 in1027.4 mb 0.00 in0.0 mm 0.00 in0.0 mm 0.00 in0.0 mm
10:45 AM 7.2°F-13.8°C -0.5°F-18.1°C 70% 5.0 mph NW8.0 kmh NW 5.0 mph8.0 kmh 30.34 in1027.4 mb 0.00 in0.0 mm 0.00 in0.0 mm 0.00 in0.0 mm
10:50 AM 7.3°F-13.7°C -0.4°F-18.0°C 70% 4.0 mph N6.4 kmh N 8.0 mph12.9 kmh 30.34 in1027.4 mb 0.00 in0.0 mm 0.00 in0.0 mm 0.00 in0.0 mm
10:55 AM 7.4°F-13.7°C -0.6°F-18.1°C 69% 5.0 mph NW8.0 kmh NW 8.0 mph12.9 kmh 30.34 in1027.4 mb 0.00 in0.0 mm 0.00 in0.0 mm 0.00 in0.0 mm
11:00 AM 7.6°F-13.6°C -0.4°F-18.0°C 69% 1.0 mph NW1.6 kmh NW 5.0 mph8.0 kmh 30.34 in1027.4 mb 0.00 in0.0 mm 0.00 in0.0 mm 0.00 in0.0 mm
11:05 AM 7.7°F-13.5°C -0.3°F-17.9°C 69% 3.0 mph NW4.8 kmh NW 8.0 mph12.9 kmh 30.34 in1027.4 mb 0.00 in0.0 mm 0.00 in0.0 mm 0.00 in0.0 mm
11:10 AM 7.9°F-13.4°C -0.1°F-17.8°C 69% 3.0 mph NW4.8 kmh NW 11.0 mph17.7 kmh 30.34 in1027.4 mb 0.00 in0.0 mm 0.00 in0.0 mm 0.00 in0.0 mm
11:15 AM 8.1°F-13.3°C 0.1°F-17.7°C 69% 1.0 mph NNW1.6 kmh NNW 6.0 mph9.7 kmh 30.34 in1027.4 mb 0.00 in0.0 mm 0.00 in0.0 mm 0.00 in0.0 mm
11:20 AM 8.4°F-13.1°C 0.3°F-17.6°C 69% 3.0 mph NW4.8 kmh NW 7.0 mph11.3 kmh 30.34 in1027.4 mb 0.00 in0.0 mm 0.00 in0.0 mm 0.00 in0.0 mm
11:25 AM 8.6°F-13.0°C 0.2°F-17.7°C 68% 3.0 mph WSW4.8 kmh WSW 8.0 mph12.9 kmh 30.34 in1027.4 mb 0.00 in0.0 mm 0.00 in0.0 mm 0.00 in0.0 mm
11:30 AM 8.8°F-12.9°C 0.7°F-17.4°C 69% 4.0 mph SW6.4 kmh SW 9.0 mph14.5 kmh 30.34 in1027.4 mb 0.00 in0.0 mm 0.00 in0.0 mm 0.00 in0.0 mm
11:35 AM 8.9°F-12.8°C 0.5°F-17.5°C 68% 4.0 mph NW6.4 kmh NW 9.0 mph14.5 kmh 30.34 in1027.4 mb 0.00 in0.0 mm 0.00 in0.0 mm 0.00 in0.0 mm
11:40 AM 8.4°F-13.1°C -0.3°F-17.9°C 67% 6.0 mph SW9.7 kmh SW 13.0 mph20.9 kmh 30.34 in1027.4 mb 0.00 in0.0 mm 0.00 in0.0 mm 0.00 in0.0 mm
11:45 AM 8.5°F-13.1°C 0.4°F-17.6°C 69% 4.0 mph NW6.4 kmh NW 8.0 mph12.9 kmh 30.34 in1027.4 mb 0.00 in0.0 mm 0.00 in0.0 mm 0.00 in0.0 mm
11:50 AM 8.4°F-13.1°C -0.3°F-17.9°C 67% 1.0 mph W1.6 kmh W 9.0 mph14.5 kmh 30.34 in1027.4 mb 0.00 in0.0 mm 0.00 in0.0 mm 0.00 in0.0 mm
11:55 AM 8.7°F-12.9°C 0.0°F-17.8°C 67% 8.0 mph W12.9 kmh W 8.0 mph12.9 kmh 30.34 in1027.4 mb 0.00 in0.0 mm 0.00 in0.0 mm 0.00 in0.0 mm
12:00 PM 9.0°F-12.8°C 0.0°F-17.8°C 66% 1.0 mph W1.6 kmh W 9.0 mph14.5 kmh 30.34 in1027.4 mb 0.00 in0.0 mm 0.00 in0.0 mm 0.00 in0.0 mm
12:05 PM 9.5°F-12.5°C 1.1°F-17.2°C 68% 5.0 mph NNW8.0 kmh NNW 9.0 mph14.5 kmh 30.34 in1027.4 mb 0.00 in0.0 mm 0.00 in0.0 mm 0.00 in0.0 mm
12:10 PM 9.4°F-12.6°C 0.7°F-17.4°C 67% 2.0 mph SW3.2 kmh SW 12.0 mph19.3 kmh 30.33 in1027.1 mb 0.00 in0.0 mm 0.00 in0.0 mm 0.00 in0.0 mm
12:14 PM 9.7°F-12.4°C 1.0°F-17.2°C 67% 2.0 mph WSW3.2 kmh WSW 11.0 mph17.7 kmh 30.34 in1027.4 mb 0.00 in0.0 mm 0.00 in0.0 mm 0.00 in0.0 mm
12:20 PM 10.0°F-12.2°C 1.3°F-17.1°C 67% 2.0 mph WNW3.2 kmh WNW 9.0 mph14.5 kmh 30.34 in1027.4 mb 0.00 in0.0 mm 0.00 in0.0 mm 0.00 in0.0 mm
12:25 PM 10.1°F-12.2°C 1.0°F-17.2°C 66% 5.0 mph WSW8.0 kmh WSW 14.0 mph22.5 kmh 30.34 in1027.4 mb 0.00 in0.0 mm 0.00 in0.0 mm 0.00 in0.0 mm
12:30 PM 10.3°F-12.1°C 1.5°F-16.9°C 67% 8.0 mph SW12.9 kmh SW 13.0 mph20.9 kmh 30.34 in1027.4 mb 0.00 in0.0 mm 0.00 in0.0 mm 0.00 in0.0 mm
12:35 PM 10.3°F-12.1°C 1.2°F-17.1°C 66% 10.0 mph NW16.1 kmh NW 10.0 mph16.1 kmh 30.34 in1027.4 mb 0.00 in0.0 mm 0.00 in0.0 mm 0.00 in0.0 mm
12:40 PM 10.2°F-12.1°C 1.1°F-17.2°C 66% 8.0 mph NW12.9 kmh NW 8.0 mph12.9 kmh 30.34 in1027.4 mb 0.00 in0.0 mm 0.00 in0.0 mm 0.00 in0.0 mm
12:44 PM 10.1°F-12.2°C 0.7°F-17.4°C 65% 4.0 mph W6.4 kmh W 11.0 mph17.7 kmh 30.34 in1027.4 mb 0.00 in0.0 mm 0.00 in0.0 mm 0.00 in0.0 mm
12:50 PM 10.8°F-11.8°C 2.0°F-16.7°C 67% 4.0 mph NNW6.4 kmh NNW 9.0 mph14.5 kmh 30.34 in1027.4 mb 0.00 in0.0 mm 0.00 in0.0 mm 0.00 in0.0 mm
12:55 PM 10.9°F-11.7°C 1.5°F-16.9°C 65% 9.0 mph SW14.5 kmh SW 9.0 mph14.5 kmh 30.34 in1027.4 mb 0.00 in0.0 mm 0.00 in0.0 mm 0.00 in0.0 mm
01:00 PM 11.3°F-11.5°C 2.2°F-16.6°C 66% 4.0 mph NW6.4 kmh NW 7.0 mph11.3 kmh 30.34 in1027.4 mb 0.00 in0.0 mm 0.00 in0.0 mm 0.00 in0.0 mm
01:05 PM 11.7°F-11.3°C 2.2°F-16.6°C 65% 2.0 mph WNW3.2 kmh WNW 7.0 mph11.3 kmh 30.33 in1027.1 mb 0.00 in0.0 mm 0.00 in0.0 mm 0.00 in0.0 mm
01:10 PM 11.6°F-11.3°C 2.1°F-16.6°C 65% 3.0 mph W4.8 kmh W 13.0 mph20.9 kmh 30.34 in1027.4 mb 0.00 in0.0 mm 0.00 in0.0 mm 0.00 in0.0 mm
01:14 PM 11.8°F-11.2°C 2.7°F-16.3°C 66% 3.0 mph NW4.8 kmh NW 10.0 mph16.1 kmh 30.34 in1027.4 mb 0.00 in0.0 mm 0.00 in0.0 mm 0.00 in0.0 mm
01:20 PM 12.1°F-11.1°C 2.6°F-16.3°C 65% 4.0 mph W6.4 kmh W 9.0 mph14.5 kmh 30.34 in1027.4 mb 0.00 in0.0 mm 0.00 in0.0 mm 0.00 in0.0 mm
01:24 PM 12.3°F-10.9°C 2.8°F-16.2°C 65% 3.0 mph WNW4.8 kmh WNW 8.0 mph12.9 kmh 30.34 in1027.4 mb 0.00 in0.0 mm 0.00 in0.0 mm 0.00 in0.0 mm
01:30 PM 12.3°F-10.9°C 2.5°F-16.4°C 64% 4.0 mph WNW6.4 kmh WNW 11.0 mph17.7 kmh 30.34 in1027.4 mb 0.00 in0.0 mm 0.00 in0.0 mm 0.00 in0.0 mm
01:35 PM 12.3°F-10.9°C 2.5°F-16.4°C 64% 6.0 mph NW9.7 kmh NW 7.0 mph11.3 kmh 30.34 in1027.4 mb 0.00 in0.0 mm 0.00 in0.0 mm 0.00 in0.0 mm
01:40 PM 12.5°F-10.8°C 2.3°F-16.5°C 63% 12.0 mph SW19.3 kmh SW 13.0 mph20.9 kmh 30.34 in1027.4 mb 0.00 in0.0 mm 0.00 in0.0 mm 0.00 in0.0 mm
01:44 PM 12.2°F-11.0°C 2.7°F-16.3°C 65% 8.0 mph WNW12.9 kmh WNW 8.0 mph12.9 kmh 30.34 in1027.4 mb 0.00 in0.0 mm 0.00 in0.0 mm 0.00 in0.0 mm
01:50 PM 12.3°F-10.9°C 2.1°F-16.6°C 63% 8.0 mph SW12.9 kmh SW 14.0 mph22.5 kmh 30.34 in1027.4 mb 0.00 in0.0 mm 0.00 in0.0 mm 0.00 in0.0 mm
01:55 PM 12.1°F-11.1°C 2.6°F-16.3°C 65% 10.0 mph NW16.1 kmh NW 11.0 mph17.7 kmh 30.34 in1027.4 mb 0.00 in0.0 mm 0.00 in0.0 mm 0.00 in0.0 mm
02:00 PM 12.3°F-10.9°C 2.5°F-16.4°C 64% 3.0 mph WNW4.8 kmh WNW 6.0 mph9.7 kmh 30.34 in1027.4 mb 0.00 in0.0 mm 0.00 in0.0 mm 0.00 in0.0 mm
02:05 PM 12.4°F-10.9°C 1.9°F-16.7°C 62% 4.0 mph N6.4 kmh N 8.0 mph12.9 kmh 30.34 in1027.4 mb 0.00 in0.0 mm 0.00 in0.0 mm 0.00 in0.0 mm
02:10 PM 12.8°F-10.7°C 3.3°F-15.9°C 65% 5.0 mph WNW8.0 kmh WNW 7.0 mph11.3 kmh 30.33 in1027.1 mb 0.00 in0.0 mm 0.00 in0.0 mm 0.00 in0.0 mm
02:15 PM 13.5°F-10.3°C 3.6°F-15.8°C 64% 3.0 mph NW4.8 kmh NW 7.0 mph11.3 kmh 30.33 in1027.1 mb 0.00 in0.0 mm 0.00 in0.0 mm 0.00 in0.0 mm
02:20 PM 13.5°F-10.3°C 2.9°F-16.2°C 62% 2.0 mph NW3.2 kmh NW 4.0 mph6.4 kmh 30.33 in1027.1 mb 0.00 in0.0 mm 0.00 in0.0 mm 0.00 in0.0 mm
02:25 PM 13.7°F-10.2°C 2.8°F-16.2°C 61% 6.0 mph WNW9.7 kmh WNW 10.0 mph16.1 kmh 30.33 in1027.1 mb 0.00 in0.0 mm 0.00 in0.0 mm 0.00 in0.0 mm
02:29 PM 13.5°F-10.3°C 2.9°F-16.2°C 62% 6.0 mph NW9.7 kmh NW 7.0 mph11.3 kmh 30.33 in1027.1 mb 0.00 in0.0 mm 0.00 in0.0 mm 0.00 in0.0 mm
02:35 PM 13.9°F-10.1°C 4.0°F-15.6°C 64% 1.0 mph WNW1.6 kmh WNW 7.0 mph11.3 kmh 30.32 in1026.8 mb 0.00 in0.0 mm 0.00 in0.0 mm 0.00 in0.0 mm
02:40 PM 14.0°F-10.0°C 3.7°F-15.7°C 63% 4.0 mph WSW6.4 kmh WSW 9.0 mph14.5 kmh 30.32 in1026.8 mb 0.00 in0.0 mm 0.00 in0.0 mm 0.00 in0.0 mm
02:44 PM 14.3°F-9.8°C 4.4°F-15.3°C 64% 5.0 mph NW8.0 kmh NW 8.0 mph12.9 kmh 30.32 in1026.8 mb 0.00 in0.0 mm 0.00 in0.0 mm 0.00 in0.0 mm
02:50 PM 14.7°F-9.6°C 4.4°F-15.3°C 63% 3.0 mph W4.8 kmh W 7.0 mph11.3 kmh 30.32 in1026.8 mb 0.00 in0.0 mm 0.00 in0.0 mm 0.00 in0.0 mm
02:55 PM 15.0°F-9.4°C 4.7°F-15.2°C 63% 1.0 mph NW1.6 kmh NW 8.0 mph12.9 kmh 30.32 in1026.8 mb 0.00 in0.0 mm 0.00 in0.0 mm 0.00 in0.0 mm
03:00 PM 14.6°F-9.7°C 4.3°F-15.4°C 63% Calm Calm 10.0 mph16.1 kmh 30.32 in1026.8 mb 0.00 in0.0 mm 0.00 in0.0 mm 0.00 in0.0 mm
03:05 PM 15.6°F-9.1°C 6.3°F-14.3°C 66% 3.0 mph W4.8 kmh W 6.0 mph9.7 kmh 30.32 in1026.8 mb 0.00 in0.0 mm 0.00 in0.0 mm 0.00 in0.0 mm
03:10 PM 16.0°F-8.9°C 6.0°F-14.4°C 64% 3.0 mph WSW4.8 kmh WSW 8.0 mph12.9 kmh 30.31 in1026.4 mb 0.00 in0.0 mm 0.00 in0.0 mm 0.00 in0.0 mm
03:14 PM 15.8°F-9.0°C 5.8°F-14.6°C 64% 4.0 mph WNW6.4 kmh WNW 5.0 mph8.0 kmh 30.31 in1026.4 mb 0.00 in0.0 mm 0.00 in0.0 mm 0.00 in0.0 mm
03:20 PM 15.8°F-9.0°C 5.8°F-14.6°C 64% 4.0 mph SW6.4 kmh SW 9.0 mph14.5 kmh 30.31 in1026.4 mb 0.00 in0.0 mm 0.00 in0.0 mm 0.00 in0.0 mm
03:25 PM 15.8°F-9.0°C 5.5°F-14.7°C 63% 1.0 mph NW1.6 kmh NW 11.0 mph17.7 kmh 30.31 in1026.4 mb 0.00 in0.0 mm 0.00 in0.0 mm 0.00 in0.0 mm
03:30 PM 15.2°F-9.3°C 4.5°F-15.3°C 62% 6.0 mph W9.7 kmh W 10.0 mph16.1 kmh 30.31 in1026.4 mb 0.00 in0.0 mm 0.00 in0.0 mm 0.00 in0.0 mm
03:35 PM 15.0°F-9.4°C 4.3°F-15.4°C 62% 6.0 mph W9.7 kmh W 9.0 mph14.5 kmh 30.31 in1026.4 mb 0.00 in0.0 mm 0.00 in0.0 mm 0.00 in0.0 mm
03:40 PM 14.6°F-9.7°C 4.0°F-15.6°C 62% 2.0 mph NW3.2 kmh NW 11.0 mph17.7 kmh 30.30 in1026.1 mb 0.00 in0.0 mm 0.00 in0.0 mm 0.00 in0.0 mm
03:44 PM 14.5°F-9.7°C 4.6°F-15.2°C 64% 7.0 mph NW11.3 kmh NW 8.0 mph12.9 kmh 30.31 in1026.4 mb 0.00 in0.0 mm 0.00 in0.0 mm 0.00 in0.0 mm
03:50 PM 14.9°F-9.5°C 5.3°F-14.8°C 65% 1.0 mph NW1.6 kmh NW 5.0 mph8.0 kmh 30.31 in1026.4 mb 0.00 in0.0 mm 0.00 in0.0 mm 0.00 in0.0 mm
03:55 PM 15.2°F-9.3°C 4.9°F-15.1°C 63% 8.0 mph NW12.9 kmh NW 10.0 mph16.1 kmh 30.30 in1026.1 mb 0.00 in0.0 mm 0.00 in0.0 mm 0.00 in0.0 mm
03:59 PM 15.3°F-9.3°C 5.3°F-14.8°C 64% 7.0 mph NW11.3 kmh NW 8.0 mph12.9 kmh 30.31 in1026.4 mb 0.00 in0.0 mm 0.00 in0.0 mm 0.00 in0.0 mm
04:05 PM 15.4°F-9.2°C 5.1°F-14.9°C 63% 5.0 mph NW8.0 kmh NW 9.0 mph14.5 kmh 30.31 in1026.4 mb 0.00 in0.0 mm 0.00 in0.0 mm 0.00 in0.0 mm
04:10 PM 15.6°F-9.1°C 5.6°F-14.7°C 64% 4.0 mph WSW6.4 kmh WSW 9.0 mph14.5 kmh 30.31 in1026.4 mb 0.00 in0.0 mm 0.00 in0.0 mm 0.00 in0.0 mm
04:14 PM 15.6°F-9.1°C 4.9°F-15.1°C 62% 3.0 mph WNW4.8 kmh WNW 10.0 mph16.1 kmh 30.30 in1026.1 mb 0.00 in0.0 mm 0.00 in0.0 mm 0.00 in0.0 mm
04:20 PM 15.7°F-9.1°C 5.4°F-14.8°C 63% 5.0 mph WNW8.0 kmh WNW 9.0 mph14.5 kmh 30.30 in1026.1 mb 0.00 in0.0 mm 0.00 in0.0 mm 0.00 in0.0 mm
04:25 PM 15.9°F-8.9°C 5.6°F-14.7°C 63% 3.0 mph WNW4.8 kmh WNW 6.0 mph9.7 kmh 30.30 in1026.1 mb 0.00 in0.0 mm 0.00 in0.0 mm 0.00 in0.0 mm
04:30 PM 16.1°F-8.8°C 5.4°F-14.8°C 62% 3.0 mph NNW4.8 kmh NNW 7.0 mph11.3 kmh 30.30 in1026.1 mb 0.00 in0.0 mm 0.00 in0.0 mm 0.00 in0.0 mm
04:35 PM 15.7°F-9.1°C 4.7°F-15.2°C 61% 7.0 mph W11.3 kmh W 11.0 mph17.7 kmh 30.30 in1026.1 mb 0.00 in0.0 mm 0.00 in0.0 mm 0.00 in0.0 mm
04:40 PM 15.6°F-9.1°C 4.9°F-15.1°C 62% 3.0 mph NW4.8 kmh NW 9.0 mph14.5 kmh 30.30 in1026.1 mb 0.00 in0.0 mm 0.00 in0.0 mm 0.00 in0.0 mm
04:44 PM 16.0°F-8.9°C 6.0°F-14.4°C 64% 10.0 mph W16.1 kmh W 11.0 mph17.7 kmh 30.30 in1026.1 mb 0.00 in0.0 mm 0.00 in0.0 mm 0.00 in0.0 mm
04:50 PM 15.7°F-9.1°C 5.0°F-15.0°C 62% 4.0 mph W6.4 kmh W 9.0 mph14.5 kmh 30.30 in1026.1 mb 0.00 in0.0 mm 0.00 in0.0 mm 0.00 in0.0 mm
04:55 PM 15.8°F-9.0°C 5.5°F-14.7°C 63% 2.0 mph NW3.2 kmh NW 9.0 mph14.5 kmh 30.30 in1026.1 mb 0.00 in0.0 mm 0.00 in0.0 mm 0.00 in0.0 mm
05:00 PM 16.1°F-8.8°C 5.7°F-14.6°C 63% 7.0 mph SW11.3 kmh SW 8.0 mph12.9 kmh 30.30 in1026.1 mb 0.00 in0.0 mm 0.00 in0.0 mm 0.00 in0.0 mm
05:05 PM 16.2°F-8.8°C 5.5°F-14.7°C 62% 5.0 mph SW8.0 kmh SW 8.0 mph12.9 kmh 30.30 in1026.1 mb 0.00 in0.0 mm 0.00 in0.0 mm 0.00 in0.0 mm
05:10 PM 16.5°F-8.6°C 6.1°F-14.4°C 63% 8.0 mph SW12.9 kmh SW 11.0 mph17.7 kmh 30.30 in1026.1 mb 0.00 in0.0 mm 0.00 in0.0 mm 0.00 in0.0 mm
05:15 PM 16.0°F-8.9°C 5.6°F-14.7°C 63% 6.0 mph SW9.7 kmh SW 9.0 mph14.5 kmh 30.30 in1026.1 mb 0.00 in0.0 mm 0.00 in0.0 mm 0.00 in0.0 mm
05:20 PM 15.9°F-8.9°C 5.9°F-14.5°C 64% 5.0 mph WNW8.0 kmh WNW 8.0 mph12.9 kmh 30.31 in1026.4 mb 0.00 in0.0 mm 0.00 in0.0 mm 0.00 in0.0 mm
05:25 PM 15.8°F-9.0°C 5.1°F-14.9°C 62% 5.0 mph SW8.0 kmh SW 13.0 mph20.9 kmh 30.31 in1026.4 mb 0.00 in0.0 mm 0.00 in0.0 mm 0.00 in0.0 mm
05:30 PM 15.4°F-9.2°C 5.4°F-14.8°C 64% 2.0 mph W3.2 kmh W 13.0 mph20.9 kmh 30.31 in1026.4 mb 0.00 in0.0 mm 0.00 in0.0 mm 0.00 in0.0 mm
05:35 PM 15.6°F-9.1°C 5.9°F-14.5°C 65% 3.0 mph NW4.8 kmh NW 10.0 mph16.1 kmh 30.31 in1026.4 mb 0.00 in0.0 mm 0.00 in0.0 mm 0.00 in0.0 mm
05:40 PM 15.3°F-9.3°C 5.7°F-14.6°C 65% 2.0 mph W3.2 kmh W 5.0 mph8.0 kmh 30.31 in1026.4 mb 0.00 in0.0 mm 0.00 in0.0 mm 0.00 in0.0 mm
05:45 PM 15.8°F-9.0°C 6.8°F-14.0°C 67% 3.0 mph W4.8 kmh W 5.0 mph8.0 kmh 30.30 in1026.1 mb 0.00 in0.0 mm 0.00 in0.0 mm 0.00 in0.0 mm
05:50 PM 15.9°F-8.9°C 6.2°F-14.3°C 65% Calm Calm 7.0 mph11.3 kmh 30.31 in1026.4 mb 0.00 in0.0 mm 0.00 in0.0 mm 0.00 in0.0 mm
05:55 PM 16.4°F-8.7°C 6.4°F-14.2°C 64% 1.0 mph W1.6 kmh W 9.0 mph14.5 kmh 30.31 in1026.4 mb 0.00 in0.0 mm 0.00 in0.0 mm 0.00 in0.0 mm
06:00 PM 16.0°F-8.9°C 5.3°F-14.8°C 62% 4.0 mph SW6.4 kmh SW 9.0 mph14.5 kmh 30.31 in1026.4 mb 0.00 in0.0 mm 0.00 in0.0 mm 0.00 in0.0 mm
06:05 PM 15.7°F-9.1°C 5.7°F-14.6°C 64% 7.0 mph SW11.3 kmh SW 8.0 mph12.9 kmh 30.31 in1026.4 mb 0.00 in0.0 mm 0.00 in0.0 mm 0.00 in0.0 mm
06:10 PM 15.6°F-9.1°C 5.6°F-14.7°C 64% 2.0 mph WSW3.2 kmh WSW 10.0 mph16.1 kmh 30.31 in1026.4 mb 0.00 in0.0 mm 0.00 in0.0 mm 0.00 in0.0 mm
06:15 PM 15.7°F-9.1°C 5.7°F-14.6°C 64% 6.0 mph SW9.7 kmh SW 7.0 mph11.3 kmh 30.31 in1026.4 mb 0.00 in0.0 mm 0.00 in0.0 mm 0.00 in0.0 mm
06:20 PM 15.5°F-9.2°C 5.5°F-14.7°C 64% 3.0 mph W4.8 kmh W 10.0 mph16.1 kmh 30.31 in1026.4 mb 0.00 in0.0 mm 0.00 in0.0 mm 0.00 in0.0 mm
06:25 PM 15.6°F-9.1°C 5.6°F-14.7°C 64% 4.0 mph SW6.4 kmh SW 9.0 mph14.5 kmh 30.31 in1026.4 mb 0.00 in0.0 mm 0.00 in0.0 mm 0.00 in0.0 mm
06:30 PM 15.3°F-9.3°C 5.3°F-14.8°C 64% 3.0 mph WNW4.8 kmh WNW 9.0 mph14.5 kmh 30.31 in1026.4 mb 0.00 in0.0 mm 0.00 in0.0 mm 0.00 in0.0 mm
06:35 PM 15.2°F-9.3°C 5.6°F-14.7°C 65% 5.0 mph SW8.0 kmh SW 6.0 mph9.7 kmh 30.31 in1026.4 mb 0.00 in0.0 mm 0.00 in0.0 mm 0.00 in0.0 mm
06:39 PM 14.9°F-9.5°C 4.9°F-15.1°C 64% 8.0 mph NW12.9 kmh NW 10.0 mph16.1 kmh 30.31 in1026.4 mb 0.00 in0.0 mm 0.00 in0.0 mm 0.00 in0.0 mm
06:44 PM 14.7°F-9.6°C 4.8°F-15.1°C 64% 8.0 mph W12.9 kmh W 9.0 mph14.5 kmh 30.31 in1026.4 mb 0.00 in0.0 mm 0.00 in0.0 mm 0.00 in0.0 mm
06:50 PM 14.4°F-9.8°C 4.5°F-15.3°C 64% Calm Calm 8.0 mph12.9 kmh 30.31 in1026.4 mb 0.00 in0.0 mm 0.00 in0.0 mm 0.00 in0.0 mm
06:55 PM 14.5°F-9.7°C 4.9°F-15.1°C 65% 4.0 mph WSW6.4 kmh WSW 7.0 mph11.3 kmh 30.31 in1026.4 mb 0.00 in0.0 mm 0.00 in0.0 mm 0.00 in0.0 mm
07:00 PM 14.3°F-9.8°C 4.4°F-15.3°C 64% 3.0 mph W4.8 kmh W 5.0 mph8.0 kmh 30.31 in1026.4 mb 0.00 in0.0 mm 0.00 in0.0 mm 0.00 in0.0 mm
07:05 PM 14.1°F-9.9°C 4.2°F-15.4°C 64% 3.0 mph WNW4.8 kmh WNW 9.0 mph14.5 kmh 30.31 in1026.4 mb 0.00 in0.0 mm 0.00 in0.0 mm 0.00 in0.0 mm
07:10 PM 14.0°F-10.0°C 4.4°F-15.3°C 65% 6.0 mph W9.7 kmh W 6.0 mph9.7 kmh 30.31 in1026.4 mb 0.00 in0.0 mm 0.00 in0.0 mm 0.00 in0.0 mm
07:15 PM 13.7°F-10.2°C 4.1°F-15.5°C 65% 6.0 mph WSW9.7 kmh WSW 8.0 mph12.9 kmh 30.31 in1026.4 mb 0.00 in0.0 mm 0.00 in0.0 mm 0.00 in0.0 mm
07:20 PM 13.5°F-10.3°C 4.3°F-15.4°C 66% 3.0 mph W4.8 kmh W 9.0 mph14.5 kmh 30.31 in1026.4 mb 0.00 in0.0 mm 0.00 in0.0 mm 0.00 in0.0 mm
07:25 PM 13.4°F-10.3°C 4.2°F-15.4°C 66% 4.0 mph W6.4 kmh W 5.0 mph8.0 kmh 30.31 in1026.4 mb 0.00 in0.0 mm 0.00 in0.0 mm 0.00 in0.0 mm
07:30 PM 13.3°F-10.4°C 4.1°F-15.5°C 66% 3.0 mph WNW4.8 kmh WNW 6.0 mph9.7 kmh 30.31 in1026.4 mb 0.00 in0.0 mm 0.00 in0.0 mm 0.00 in0.0 mm
07:35 PM 13.2°F-10.4°C 3.7°F-15.7°C 65% 7.0 mph NW11.3 kmh NW 8.0 mph12.9 kmh 30.32 in1026.8 mb 0.00 in0.0 mm 0.00 in0.0 mm 0.00 in0.0 mm
07:40 PM 13.0°F-10.6°C 3.8°F-15.7°C 66% 5.0 mph NW8.0 kmh NW 9.0 mph14.5 kmh 30.31 in1026.4 mb 0.00 in0.0 mm 0.00 in0.0 mm 0.00 in0.0 mm
07:45 PM 12.9°F-10.6°C 3.7°F-15.7°C 66% 3.0 mph W4.8 kmh W 4.0 mph6.4 kmh 30.31 in1026.4 mb 0.00 in0.0 mm 0.00 in0.0 mm 0.00 in0.0 mm
07:50 PM 12.8°F-10.7°C 3.9°F-15.6°C 67% 5.0 mph NW8.0 kmh NW 9.0 mph14.5 kmh 30.31 in1026.4 mb 0.00 in0.0 mm 0.00 in0.0 mm 0.00 in0.0 mm
07:55 PM 12.6°F-10.8°C 3.7°F-15.7°C 67% 1.0 mph W1.6 kmh W 8.0 mph12.9 kmh 30.31 in1026.4 mb 0.00 in0.0 mm 0.00 in0.0 mm 0.00 in0.0 mm
08:00 PM 12.6°F-10.8°C 3.7°F-15.7°C 67% 6.0 mph W9.7 kmh W 6.0 mph9.7 kmh 30.31 in1026.4 mb 0.00 in0.0 mm 0.00 in0.0 mm 0.00 in0.0 mm
08:04 PM 12.5°F-10.8°C 3.6°F-15.8°C 67% 4.0 mph SW6.4 kmh SW 9.0 mph14.5 kmh 30.31 in1026.4 mb 0.00 in0.0 mm 0.00 in0.0 mm 0.00 in0.0 mm
08:10 PM 12.4°F-10.9°C 3.9°F-15.6°C 68% 3.0 mph WNW4.8 kmh WNW 7.0 mph11.3 kmh 30.32 in1026.8 mb 0.00 in0.0 mm 0.00 in0.0 mm 0.00 in0.0 mm
08:15 PM 12.3°F-10.9°C 3.8°F-15.7°C 68% 2.0 mph NW3.2 kmh NW 7.0 mph11.3 kmh 30.31 in1026.4 mb 0.00 in0.0 mm 0.00 in0.0 mm 0.00 in0.0 mm
08:20 PM 12.2°F-11.0°C 3.7°F-15.7°C 68% 3.0 mph W4.8 kmh W 7.0 mph11.3 kmh 30.31 in1026.4 mb 0.00 in0.0 mm 0.00 in0.0 mm 0.00 in0.0 mm
08:25 PM 12.2°F-11.0°C 3.7°F-15.7°C 68% 3.0 mph W4.8 kmh W 6.0 mph9.7 kmh 30.32 in1026.8 mb 0.00 in0.0 mm 0.00 in0.0 mm 0.00 in0.0 mm
08:30 PM 12.1°F-11.1°C 3.6°F-15.8°C 68% 2.0 mph WNW3.2 kmh WNW 6.0 mph9.7 kmh 30.32 in1026.8 mb 0.00 in0.0 mm 0.00 in0.0 mm 0.00 in0.0 mm
08:35 PM 12.0°F-11.1°C 3.8°F-15.7°C 69% 1.0 mph WNW1.6 kmh WNW 7.0 mph11.3 kmh 30.32 in1026.8 mb 0.00 in0.0 mm 0.00 in0.0 mm 0.00 in0.0 mm
08:40 PM 11.8°F-11.2°C 3.6°F-15.8°C 69% 2.0 mph NW3.2 kmh NW 9.0 mph14.5 kmh 30.32 in1026.8 mb 0.00 in0.0 mm 0.00 in0.0 mm 0.00 in0.0 mm
08:45 PM 11.7°F-11.3°C 3.5°F-15.8°C 69% 3.0 mph WNW4.8 kmh WNW 3.0 mph4.8 kmh 30.32 in1026.8 mb 0.00 in0.0 mm 0.00 in0.0 mm 0.00 in0.0 mm
08:50 PM 11.6°F-11.3°C 3.4°F-15.9°C 69% 3.0 mph NW4.8 kmh NW 7.0 mph11.3 kmh 30.32 in1026.8 mb 0.00 in0.0 mm 0.00 in0.0 mm 0.00 in0.0 mm
08:55 PM 11.5°F-11.4°C 3.6°F-15.8°C 70% 3.0 mph WNW4.8 kmh WNW 4.0 mph6.4 kmh 30.32 in1026.8 mb 0.00 in0.0 mm 0.00 in0.0 mm 0.00 in0.0 mm
08:59 PM 11.4°F-11.4°C 3.5°F-15.8°C 70% 1.0 mph W1.6 kmh W 6.0 mph9.7 kmh 30.32 in1026.8 mb 0.00 in0.0 mm 0.00 in0.0 mm 0.00 in0.0 mm
09:05 PM 11.4°F-11.4°C 3.5°F-15.8°C 70% 4.0 mph NW6.4 kmh NW 7.0 mph11.3 kmh 30.32 in1026.8 mb 0.00 in0.0 mm 0.00 in0.0 mm 0.00 in0.0 mm
09:10 PM 11.3°F-11.5°C 3.7°F-15.7°C 71% 1.0 mph W1.6 kmh W 3.0 mph4.8 kmh 30.32 in1026.8 mb 0.00 in0.0 mm 0.00 in0.0 mm 0.00 in0.0 mm
09:15 PM 11.3°F-11.5°C 3.7°F-15.7°C 71% 1.0 mph W1.6 kmh W 3.0 mph4.8 kmh 30.32 in1026.8 mb 0.00 in0.0 mm 0.00 in0.0 mm 0.00 in0.0 mm
09:20 PM 11.2°F-11.6°C 3.7°F-15.7°C 71% 3.0 mph WNW4.8 kmh WNW 4.0 mph6.4 kmh 30.32 in1026.8 mb 0.00 in0.0 mm 0.00 in0.0 mm 0.00 in0.0 mm
09:25 PM 11.1°F-11.6°C 3.9°F-15.6°C 72% 2.0 mph WSW3.2 kmh WSW 7.0 mph11.3 kmh 30.32 in1026.8 mb 0.00 in0.0 mm 0.00 in0.0 mm 0.00 in0.0 mm
09:30 PM 11.0°F-11.7°C 3.5°F-15.8°C 71% 4.0 mph NW6.4 kmh NW 5.0 mph8.0 kmh 30.32 in1026.8 mb 0.00 in0.0 mm 0.00 in0.0 mm 0.00 in0.0 mm
09:35 PM 11.0°F-11.7°C 3.8°F-15.7°C 72% 2.0 mph NW3.2 kmh NW 4.0 mph6.4 kmh 30.32 in1026.8 mb 0.00 in0.0 mm 0.00 in0.0 mm 0.00 in0.0 mm
09:40 PM 11.0°F-11.7°C 3.8°F-15.7°C 72% 1.0 mph NW1.6 kmh NW 5.0 mph8.0 kmh 30.32 in1026.8 mb 0.00 in0.0 mm 0.00 in0.0 mm 0.00 in0.0 mm
09:44 PM 11.0°F-11.7°C 3.8°F-15.7°C 72% 2.0 mph WNW3.2 kmh WNW 4.0 mph6.4 kmh 30.32 in1026.8 mb 0.00 in0.0 mm 0.00 in0.0 mm 0.00 in0.0 mm
09:50 PM 11.0°F-11.7°C 3.8°F-15.7°C 72% 3.0 mph WNW4.8 kmh WNW 4.0 mph6.4 kmh 30.32 in1026.8 mb 0.00 in0.0 mm 0.00 in0.0 mm 0.00 in0.0 mm
09:55 PM 11.1°F-11.6°C 3.9°F-15.6°C 72% 2.0 mph W3.2 kmh W 6.0 mph9.7 kmh 30.32 in1026.8 mb 0.00 in0.0 mm 0.00 in0.0 mm 0.00 in0.0 mm
10:00 PM 11.1°F-11.6°C 3.9°F-15.6°C 72% 2.0 mph W3.2 kmh W 4.0 mph6.4 kmh 30.32 in1026.8 mb 0.00 in0.0 mm 0.00 in0.0 mm 0.00 in0.0 mm
10:05 PM 11.2°F-11.6°C 4.0°F-15.6°C 72% 1.0 mph NW1.6 kmh NW 4.0 mph6.4 kmh 30.32 in1026.8 mb 0.00 in0.0 mm 0.00 in0.0 mm 0.00 in0.0 mm
10:10 PM 11.3°F-11.5°C 4.4°F-15.3°C 73% 2.0 mph NW3.2 kmh NW 4.0 mph6.4 kmh 30.32 in1026.8 mb 0.00 in0.0 mm 0.00 in0.0 mm 0.00 in0.0 mm
10:15 PM 11.4°F-11.4°C 4.4°F-15.3°C 73% 4.0 mph NW6.4 kmh NW 5.0 mph8.0 kmh 30.32 in1026.8 mb 0.00 in0.0 mm 0.00 in0.0 mm 0.00 in0.0 mm
10:19 PM 11.4°F-11.4°C 4.4°F-15.3°C 73% 1.0 mph W1.6 kmh W 5.0 mph8.0 kmh 30.32 in1026.8 mb 0.00 in0.0 mm 0.00 in0.0 mm 0.00 in0.0 mm
10:25 PM 11.4°F-11.4°C 4.4°F-15.3°C 73% 3.0 mph WNW4.8 kmh WNW 7.0 mph11.3 kmh 30.32 in1026.8 mb 0.00 in0.0 mm 0.00 in0.0 mm 0.00 in0.0 mm
10:31 PM 11.5°F-11.4°C 4.5°F-15.3°C 73% 4.0 mph NW6.4 kmh NW 9.0 mph14.5 kmh 30.32 in1026.8 mb 0.00 in0.0 mm 0.00 in0.0 mm 0.00 in0.0 mm
10:35 PM 11.5°F-11.4°C 4.5°F-15.3°C 73% 6.0 mph W9.7 kmh W 7.0 mph11.3 kmh 30.32 in1026.8 mb 0.00 in0.0 mm 0.00 in0.0 mm 0.00 in0.0 mm
10:40 PM 11.6°F-11.3°C 4.6°F-15.2°C 73% 2.0 mph WSW3.2 kmh WSW 6.0 mph9.7 kmh 30.32 in1026.8 mb 0.00 in0.0 mm 0.00 in0.0 mm 0.00 in0.0 mm
10:45 PM 11.6°F-11.3°C 4.6°F-15.2°C 73% 2.0 mph NW3.2 kmh NW 7.0 mph11.3 kmh 30.32 in1026.8 mb 0.00 in0.0 mm 0.00 in0.0 mm 0.00 in0.0 mm
10:50 PM 11.6°F-11.3°C 4.6°F-15.2°C 73% 4.0 mph NW6.4 kmh NW 5.0 mph8.0 kmh 30.32 in1026.8 mb 0.00 in0.0 mm 0.00 in0.0 mm 0.00 in0.0 mm
10:55 PM 11.7°F-11.3°C 4.7°F-15.2°C 73% 4.0 mph W6.4 kmh W 8.0 mph12.9 kmh 30.32 in1026.8 mb 0.00 in0.0 mm 0.00 in0.0 mm 0.00 in0.0 mm
11:00 PM 11.8°F-11.2°C 4.8°F-15.1°C 73% 1.0 mph NW1.6 kmh NW 9.0 mph14.5 kmh 30.32 in1026.8 mb 0.00 in0.0 mm 0.00 in0.0 mm 0.00 in0.0 mm
11:05 PM 11.8°F-11.2°C 4.8°F-15.1°C 73% 5.0 mph NW8.0 kmh NW 7.0 mph11.3 kmh 30.32 in1026.8 mb 0.00 in0.0 mm 0.00 in0.0 mm 0.00 in0.0 mm
11:10 PM 11.8°F-11.2°C 4.5°F-15.3°C 72% 2.0 mph NW3.2 kmh NW 6.0 mph9.7 kmh 30.33 in1027.1 mb 0.00 in0.0 mm 0.00 in0.0 mm 0.00 in0.0 mm
11:15 PM 11.9°F-11.2°C 4.6°F-15.2°C 72% 7.0 mph NW11.3 kmh NW 8.0 mph12.9 kmh 30.33 in1027.1 mb 0.00 in0.0 mm 0.00 in0.0 mm 0.00 in0.0 mm
11:20 PM 11.9°F-11.2°C 4.6°F-15.2°C 72% 6.0 mph SW9.7 kmh SW 7.0 mph11.3 kmh 30.33 in1027.1 mb 0.00 in0.0 mm 0.00 in0.0 mm 0.00 in0.0 mm
11:25 PM 11.9°F-11.2°C 4.6°F-15.2°C 72% 3.0 mph W4.8 kmh W 6.0 mph9.7 kmh 30.33 in1027.1 mb 0.00 in0.0 mm 0.00 in0.0 mm 0.00 in0.0 mm
11:30 PM 11.9°F-11.2°C 4.9°F-15.1°C 73% 4.0 mph NW6.4 kmh NW 7.0 mph11.3 kmh 30.33 in1027.1 mb 0.00 in0.0 mm 0.00 in0.0 mm 0.00 in0.0 mm
11:35 PM 11.9°F-11.2°C 4.9°F-15.1°C 73% 5.0 mph WSW8.0 kmh WSW 6.0 mph9.7 kmh 30.33 in1027.1 mb 0.00 in0.0 mm 0.00 in0.0 mm 0.00 in0.0 mm
11:40 PM 12.0°F-11.1°C 5.0°F-15.0°C 73% 3.0 mph NW4.8 kmh NW 5.0 mph8.0 kmh 30.33 in1027.1 mb 0.00 in0.0 mm 0.00 in0.0 mm 0.00 in0.0 mm
11:45 PM 12.0°F-11.1°C 5.0°F-15.0°C 73% 2.0 mph WSW3.2 kmh WSW 6.0 mph9.7 kmh 30.33 in1027.1 mb 0.00 in0.0 mm 0.00 in0.0 mm 0.00 in0.0 mm
11:50 PM 12.0°F-11.1°C 5.0°F-15.0°C 73% 2.0 mph WSW3.2 kmh WSW 6.0 mph9.7 kmh 30.33 in1027.1 mb 0.00 in0.0 mm 0.00 in0.0 mm 0.00 in0.0 mm
11:55 PM 11.9°F-11.2°C 4.9°F-15.1°C 73% 2.0 mph W3.2 kmh W 7.0 mph11.3 kmh 30.33 in1027.1 mb 0.00 in0.0 mm 0.00 in0.0 mm 0.00 in0.0 mm